Time;durP1;ratioP1;P1;durP2;ratioP2;P2;SDS_P1;SDS_P2;PMS_P1;PMS_P2;Temp;Humidity;BMP_temperature;BMP_pressure;BME280_temperature;BME280_humidity;BME280_pressure;Samples;Min_cycle;Max_cycle;Signal;HPM_P1;HPM_P2
2022/07/20 00:01:33;;;;;;;2.83;2.50;;;21.80;60.30;;;;;;4961993;28;20026;-85
2022/07/20 00:03:58;;;;;;;6.57;2.55;;;21.70;59.80;;;;;;4979994;28;20038;-85
2022/07/20 00:06:24;;;;;;;4.60;2.42;;;21.70;59.90;;;;;;4979921;28;20468;-85
2022/07/20 00:11:34;;;;;;;8.85;3.38;;;21.60;60.10;;;;;;4978995;28;20500;-84
2022/07/20 00:14:02;;;;;;;4.15;2.85;;;21.60;60.60;;;;;;4978935;28;20050;-85
2022/07/20 00:16:30;;;;;;;4.95;3.15;;;21.50;61.00;;;;;;4978878;28;20046;-85
2022/07/20 00:18:55;;;;;;;5.20;3.10;;;21.50;61.60;;;;;;4979525;28;20053;-85
2022/07/20 00:21:21;;;;;;;5.88;3.55;;;21.40;62.10;;;;;;4979115;28;20026;-85
2022/07/20 00:23:47;;;;;;;6.57;3.30;;;21.30;62.30;;;;;;4978363;28;20058;-85
2022/07/20 00:26:13;;;;;;;4.70;3.30;;;21.30;62.60;;;;;;4978301;28;20031;-85
2022/07/20 00:28:39;;;;;;;5.75;2.75;;;21.20;62.80;;;;;;4980471;28;20019;-85
2022/07/20 00:31:05;;;;;;;4.13;2.75;;;21.20;63.20;;;;;;4980777;28;20105;-85
2022/07/20 00:33:31;;;;;;;5.13;3.10;;;21.20;63.20;;;;;;4990667;28;20003;-84
2022/07/20 00:35:56;;;;;;;4.80;2.63;;;21.10;63.40;;;;;;4988613;28;20031;-85
2022/07/20 00:38:22;;;;;;;4.90;2.70;;;21.10;63.50;;;;;;4981110;28;20031;-85
2022/07/20 00:40:48;;;;;;;3.17;2.38;;;21.10;63.50;;;;;;4993906;28;20074;-82
2022/07/20 00:43:14;;;;;;;4.68;2.83;;;21.10;63.50;;;;;;4996273;28;20042;-84
2022/07/20 00:45:40;;;;;;;6.15;2.67;;;21.10;63.60;;;;;;4992948;28;20059;-84
2022/07/20 00:48:06;;;;;;;3.13;2.45;;;21.10;63.60;;;;;;4980974;28;20034;-83
2022/07/20 00:50:31;;;;;;;3.17;2.53;;;21.10;63.40;;;;;;4977920;28;20019;-84
2022/07/20 00:52:58;;;;;;;2.97;2.47;;;21.10;63.50;;;;;;4975475;28;20026;-84
2022/07/20 00:55:23;;;;;;;7.13;2.50;;;21.00;63.70;;;;;;4976730;28;20030;-84
2022/07/20 00:57:49;;;;;;;3.45;2.92;;;21.00;63.90;;;;;;4958463;28;20066;-84
2022/07/20 01:00:15;;;;;;;2.97;2.17;;;21.00;64.00;;;;;;4959433;28;20027;-84
2022/07/20 01:02:42;;;;;;;2.33;2.15;;;21.00;64.00;;;;;;4976632;28;20396;-84
2022/07/20 01:05:13;;;;;;;3.60;2.47;;;20.90;64.00;;;;;;4982462;28;20099;-84
2022/07/20 01:07:44;;;;;;;2.40;2.20;;;20.90;64.20;;;;;;4960343;28;20043;-84
2022/07/20 01:10:11;;;;;;;2.50;2.30;;;20.90;64.40;;;;;;4976274;28;20026;-84
2022/07/20 01:12:38;;;;;;;3.88;1.80;;;20.90;64.60;;;;;;4976478;28;20099;-84
2022/07/20 01:15:25;;;;;;;2.30;2.10;;;20.80;64.60;;;;;;4976207;28;20018;-84
2022/07/20 01:21:50;;;;;;;3.58;2.72;;;20.70;64.90;;;;;;4976735;28;20498;-84
2022/07/20 01:24:58;;;;;;;;;;;20.70;65.40;;;;;;4957952;29;20065;-84
2022/07/20 01:27:26;;;;;;;2.50;2.22;;;20.70;65.80;;;;;;4958212;28;19922;-84
2022/07/20 01:29:58;;;;;;;3.22;2.80;;;20.60;66.00;;;;;;4944172;28;20031;-83
2022/07/20 01:32:23;;;;;;;4.00;2.42;;;20.60;66.30;;;;;;4974782;28;20026;-83
2022/07/20 01:34:59;;;;;;;3.20;2.70;;;20.60;66.50;;;;;;4974068;28;20031;-83
2022/07/20 01:37:40;;;;;;;;;;;;;;;;;;;;;
2022/07/20 01:40:12;;;;;;;3.15;2.80;;;20.50;67.00;;;;;;4974706;28;20026;-84
2022/07/20 01:46:43;;;;;;;3.92;3.00;;;20.50;67.20;;;;;;4976949;28;20037;-83
2022/07/20 01:49:47;;;;;;;4.00;2.97;;;20.50;67.20;;;;;;4949505;28;20042;-84
2022/07/20 01:53:03;;;;;;;3.15;2.85;;;20.40;67.30;;;;;;4978809;28;20023;-82
2022/07/20 01:59:13;;;;;;;2.20;2.00;;;20.40;67.40;;;;;;4963404;29;20114;-83
2022/07/20 02:02:28;;;;;;;2.80;2.58;;;20.40;68.10;;;;;;4957618;28;20496;-83
2022/07/20 02:05:26;;;;;;;2.40;2.25;;;20.40;68.50;;;;;;4951484;28;20043;-83
2022/07/20 02:08:28;;;;;;;;;;;;;;;;;;;;;
2022/07/20 02:24:55;;;;;;;2.92;2.72;;;20.20;68.40;;;;;;4870822;29;20142;-84
2022/07/20 02:28:01;;;;;;;3.13;2.78;;;20.20;68.30;;;;;;4927830;29;20032;-84
2022/07/20 02:30:30;;;;;;;4.82;3.20;;;20.20;68.30;;;;;;4917416;29;20046;-84
2022/07/20 02:33:34;;;;;;;3.85;2.80;;;20.20;68.60;;;;;;4961533;28;20052;-84
2022/07/20 02:36:25;;;;;;;5.20;3.20;;;20.20;68.80;;;;;;4977756;28;20031;-84
2022/07/20 02:39:05;;;;;;;3.00;2.75;;;20.10;69.20;;;;;;4976318;28;20027;-84
2022/07/20 02:45:08;;;;;;;2.88;2.58;;;20.10;69.40;;;;;;4976781;28;20041;-83
2022/07/20 02:48:37;;;;;;;4.90;2.97;;;20.00;69.70;;;;;;4969971;28;20126;-83
2022/07/20 02:51:31;;;;;;;3.42;2.95;;;20.00;70.10;;;;;;4966858;28;20146;-83
2022/07/20 02:55:03;;;;;;;;;;;;;;;;;;;;;
2022/07/20 02:57:54;;;;;;;5.47;3.08;;;19.90;70.50;;;;;;4975581;28;20082;-84
2022/07/20 03:00:58;;;;;;;;;;;;;;;;;;;;;
2022/07/20 03:14:02;;;;;;;5.00;3.25;;;19.60;72.90;;;;;;4957440;28;20031;-84
2022/07/20 03:17:29;;;;;;;;;;;;;;;;;;;;;
2022/07/20 03:20:31;;;;;;;3.45;3.15;;;19.50;74.30;;;;;;4956573;28;20392;-84
2022/07/20 03:23:08;;;;;;;3.10;2.78;;;19.40;74.80;;;;;;4936299;29;20524;-84
2022/07/20 03:26:10;;;;;;;2.97;2.70;;;19.40;74.90;;;;;;4956909;28;20154;-84
2022/07/20 03:28:50;;;;;;;6.45;3.00;;;19.40;74.90;;;;;;4940131;29;20466;-85
2022/07/20 03:31:27;;;;;;;5.60;3.42;;;19.50;74.90;;;;;;4956954;28;20408;-85
2022/07/20 03:33:58;;;;;;;2.58;2.38;;;19.50;74.60;;;;;;4957791;28;20023;-84
2022/07/20 03:36:34;;;;;;;2.38;2.17;;;19.50;74.40;;;;;;4958652;28;20066;-84
2022/07/20 03:39:12;;;;;;;3.30;2.30;;;19.50;74.60;;;;;;4976379;28;20566;-84
2022/07/20 03:41:46;;;;;;;2.45;2.15;;;19.50;74.80;;;;;;4975908;28;20050;-84
2022/07/20 03:44:16;;;;;;;4.22;3.42;;;19.60;75.00;;;;;;4976164;28;20176;-84
2022/07/20 03:46:47;;;;;;;5.63;2.58;;;19.60;74.90;;;;;;4976538;28;20444;-84
2022/07/20 03:49:16;;;;;;;3.88;2.83;;;19.60;74.40;;;;;;4958746;28;20134;-84
2022/07/20 03:51:52;;;;;;;2.80;2.60;;;19.60;74.20;;;;;;4976897;28;20023;-84
2022/07/20 03:55:00;;;;;;;3.50;2.53;;;19.60;74.00;;;;;;4959685;28;20376;-84
2022/07/20 03:57:36;;;;;;;4.15;3.20;;;19.70;73.40;;;;;;4976721;28;20034;-84
2022/07/20 04:00:45;;;;;;;;;;;;;;;;;;;;;
2022/07/20 04:03:15;;;;;;;3.08;2.65;;;19.70;73.10;;;;;;4964499;28;20054;-84
2022/07/20 04:06:04;;;;;;;3.05;2.83;;;19.80;73.10;;;;;;4997072;28;20062;-83
2022/07/20 04:08:33;;;;;;;5.22;2.72;;;19.90;73.10;;;;;;4996807;28;20032;-82
2022/07/20 04:11:36;;;;;;;3.38;2.97;;;19.90;73.00;;;;;;4997622;28;20077;-81
2022/07/20 04:14:05;;;;;;;3.70;2.95;;;20.00;73.10;;;;;;4997396;28;20026;-83
2022/07/20 04:16:42;;;;;;;5.10;3.30;;;20.00;73.00;;;;;;4986417;28;20055;-83
2022/07/20 04:19:23;;;;;;;4.00;2.88;;;20.10;73.00;;;;;;4996678;28;20035;-81
2022/07/20 04:22:32;;;;;;;5.30;2.75;;;20.20;72.80;;;;;;4974965;28;20038;-84
2022/07/20 04:25:00;;;;;;;2.95;2.60;;;20.30;72.80;;;;;;4963814;28;20023;-83
2022/07/20 04:27:26;;;;;;;3.85;2.35;;;20.40;72.60;;;;;;4985028;28;20038;-84
2022/07/20 04:29:55;;;;;;;4.63;3.00;;;20.50;72.40;;;;;;4980595;28;20130;-85
2022/07/20 04:32:48;;;;;;;5.05;3.45;;;20.50;72.10;;;;;;4980706;28;20103;-84
2022/07/20 04:35:18;;;;;;;4.50;3.10;;;20.60;72.10;;;;;;4962201;28;20061;-83
2022/07/20 04:38:38;;;;;;;3.70;3.10;;;20.60;71.90;;;;;;4980825;28;20110;-85
2022/07/20 04:41:08;;;;;;;3.70;3.33;;;20.70;71.90;;;;;;4940029;29;20039;-85
2022/07/20 04:43:37;;;;;;;3.35;2.95;;;20.70;71.80;;;;;;4942124;28;20074;-84
2022/07/20 04:46:03;;;;;;;4.15;3.10;;;20.90;71.80;;;;;;4961212;28;20440;-82
2022/07/20 04:48:28;;;;;;;5.63;3.40;;;20.90;71.60;;;;;;4981433;28;20018;-80
2022/07/20 04:50:54;;;;;;;4.05;3.17;;;21.00;71.40;;;;;;4975932;28;20066;-82
2022/07/20 04:53:20;;;;;;;3.53;3.22;;;21.10;71.00;;;;;;4989919;28;20019;-80
2022/07/20 04:55:45;;;;;;;3.95;3.35;;;21.20;70.30;;;;;;4985881;28;20085;-82
2022/07/20 04:58:11;;;;;;;5.38;3.30;;;21.30;69.80;;;;;;4960907;28;20058;-78
2022/07/20 05:00:37;;;;;;;5.70;3.28;;;21.40;69.50;;;;;;4976440;28;20033;-79
2022/07/20 05:03:02;;;;;;;3.80;3.40;;;21.50;68.80;;;;;;4976309;28;20027;-78
2022/07/20 05:05:28;;;;;;;6.47;3.50;;;21.60;68.30;;;;;;4977084;28;20111;-78
2022/07/20 05:07:53;;;;;;;6.35;3.50;;;21.70;68.30;;;;;;4977300;28;20058;-78
2022/07/20 05:10:20;;;;;;;4.00;3.50;;;21.80;68.10;;;;;;4975801;28;20038;-78
2022/07/20 05:12:45;;;;;;;4.03;3.63;;;21.90;68.60;;;;;;4974826;28;20038;-78
2022/07/20 05:15:11;;;;;;;3.33;3.03;;;22.10;67.60;;;;;;4975343;28;20101;-79
2022/07/20 05:17:36;;;;;;;4.78;3.20;;;22.30;67.50;;;;;;4975602;28;20030;-78
2022/07/20 05:20:02;;;;;;;3.30;3.00;;;23.70;65.10;;;;;;4975744;28;20030;-78
2022/07/20 05:22:28;;;;;;;3.60;3.30;;;25.40;61.60;;;;;;4977329;28;20034;-79
2022/07/20 05:24:54;;;;;;;3.15;2.85;;;27.40;57.60;;;;;;4977304;28;20027;-79
2022/07/20 05:27:19;;;;;;;2.88;2.67;;;29.30;53.70;;;;;;4975227;28;20081;-79
2022/07/20 05:29:45;;;;;;;3.50;3.20;;;30.70;50.90;;;;;;4974750;28;20035;-77
2022/07/20 05:32:11;;;;;;;3.35;3.05;;;31.60;48.90;;;;;;4974283;28;20026;-76
2022/07/20 05:34:36;;;;;;;3.30;3.00;;;31.80;47.50;;;;;;4974334;28;20108;-81
2022/07/20 05:37:02;;;;;;;5.05;2.90;;;31.30;46.90;;;;;;4986471;28;20027;-78
2022/07/20 05:39:28;;;;;;;3.70;3.40;;;30.10;48.00;;;;;;4990858;28;20038;-81
2022/07/20 05:41:54;;;;;;;3.28;3.00;;;29.70;50.40;;;;;;4973207;28;20291;-81
2022/07/20 05:44:20;;;;;;;4.30;3.47;;;31.50;49.70;;;;;;4980928;28;20031;-80
2022/07/20 05:46:45;;;;;;;3.67;3.38;;;33.60;46.50;;;;;;4969099;28;20045;-79
2022/07/20 05:49:11;;;;;;;3.30;3.00;;;35.20;43.60;;;;;;4979878;28;20086;-80
2022/07/20 05:51:36;;;;;;;3.25;3.05;;;36.40;41.90;;;;;;4978655;28;20043;-82
2022/07/20 05:54:02;;;;;;;4.25;3.85;;;37.10;40.80;;;;;;4976537;28;20031;-81
2022/07/20 05:56:28;;;;;;;4.65;3.50;;;37.80;39.90;;;;;;4964168;28;20161;-81
2022/07/20 05:58:54;;;;;;;5.95;3.33;;;38.20;39.20;;;;;;4962307;28;20024;-81
2022/07/20 06:01:20;;;;;;;3.65;3.35;;;38.40;39.20;;;;;;4980046;28;20026;-82
2022/07/20 06:03:45;;;;;;;3.60;3.30;;;38.50;39.00;;;;;;4983809;28;20114;-82
2022/07/20 06:06:11;;;;;;;3.60;3.30;;;38.70;38.60;;;;;;4981445;28;20027;-81
2022/07/20 06:08:37;;;;;;;3.75;3.38;;;39.40;37.90;;;;;;4963983;28;20019;-81
2022/07/20 06:11:03;;;;;;;4.03;3.72;;;39.50;37.40;;;;;;4979676;28;20057;-82
2022/07/20 06:13:29;;;;;;;4.13;3.83;;;39.50;37.60;;;;;;4982680;28;20039;-82
2022/07/20 06:15:55;;;;;;;3.78;3.40;;;39.40;37.80;;;;;;4981793;28;20027;-83
2022/07/20 06:18:22;;;;;;;4.60;3.53;;;38.80;37.60;;;;;;4984838;28;20027;-83
2022/07/20 06:20:48;;;;;;;3.42;3.22;;;38.30;38.00;;;;;;4968510;28;20033;-82
2022/07/20 06:23:13;;;;;;;3.65;3.35;;;38.00;38.30;;;;;;4988126;28;20035;-83
2022/07/20 06:25:39;;;;;;;4.03;3.72;;;38.20;38.30;;;;;;4971101;28;20077;-83
2022/07/20 06:28:08;;;;;;;4.63;3.88;;;38.40;38.40;;;;;;4986348;28;20031;-83
2022/07/20 06:30:44;;;;;;;7.05;4.25;;;38.60;38.30;;;;;;4983876;28;20042;-84
2022/07/20 06:33:09;;;;;;;4.78;4.38;;;38.90;38.00;;;;;;4988180;28;20476;-82
2022/07/20 06:35:36;;;;;;;4.35;3.95;;;39.10;37.90;;;;;;4979097;28;20153;-83
2022/07/20 06:38:02;;;;;;;3.90;3.60;;;39.60;37.40;;;;;;4962677;28;20031;-82
2022/07/20 06:40:28;;;;;;;3.80;3.50;;;40.00;37.30;;;;;;4980273;28;20428;-82
2022/07/20 06:42:53;;;;;;;3.95;3.60;;;40.20;42.00;;;;;;4979995;28;20034;-82
2022/07/20 06:45:19;;;;;;;4.03;3.60;;;40.70;36.80;;;;;;4979285;28;20022;-84
2022/07/20 06:47:46;;;;;;;3.97;3.50;;;41.50;36.10;;;;;;4979553;28;20611;-83
2022/07/20 06:50:12;;;;;;;4.20;3.90;;;41.90;35.30;;;;;;4979463;28;20070;-82
2022/07/20 06:52:37;;;;;;;4.30;4.00;;;42.40;35.10;;;;;;4979804;28;20027;-81
2022/07/20 06:55:05;;;;;;;5.20;4.30;;;42.40;34.90;;;;;;4980122;28;20027;-83
2022/07/20 06:57:31;;;;;;;5.07;3.97;;;42.00;35.00;;;;;;4981973;28;20067;-82
2022/07/20 06:59:56;;;;;;;4.75;4.00;;;42.10;35.10;;;;;;4982343;28;20153;-82
2022/07/20 07:02:22;;;;;;;5.18;4.35;;;42.20;35.10;;;;;;4965441;28;20033;-82
2022/07/20 07:04:48;;;;;;;3.88;3.58;;;42.10;34.80;;;;;;4966694;28;20476;-83
2022/07/20 07:07:14;;;;;;;4.93;4.25;;;42.10;35.10;;;;;;4983828;28;20035;-82
2022/07/20 07:09:39;;;;;;;4.40;4.05;;;42.00;34.90;;;;;;4982574;28;20031;-82
2022/07/20 07:12:06;;;;;;;4.35;3.95;;;41.90;35.00;;;;;;4984281;28;20258;-82
2022/07/20 07:14:31;;;;;;;5.03;4.38;;;41.80;34.80;;;;;;4986000;28;20182;-81
2022/07/20 07:16:57;;;;;;;4.28;3.92;;;41.40;35.00;;;;;;4992655;28;20031;-81
2022/07/20 07:19:29;;;;;;;4.85;3.92;;;39.80;35.20;;;;;;4992400;28;20038;-82
2022/07/20 07:21:57;;;;;;;5.00;4.38;;;37.00;37.20;;;;;;4972830;28;20050;-81
2022/07/20 07:24:27;;;;;;;4.63;4.22;;;34.50;39.60;;;;;;4974597;28;20042;-81
2022/07/20 07:27:17;;;;;;;4.80;4.40;;;32.60;42.10;;;;;;4986829;28;20066;-81
2022/07/20 07:29:42;;;;;;;9.90;5.20;;;31.10;44.50;;;;;;4966607;28;20026;-82
2022/07/20 07:32:20;;;;;;;8.60;5.20;;;30.20;46.30;;;;;;4982536;23;20066;-82
2022/07/20 07:34:51;;;;;;;9.95;5.32;;;29.50;47.40;;;;;;4978002;28;20065;-81
2022/07/20 07:37:17;;;;;;;6.00;5.40;;;29.00;48.30;;;;;;4993754;28;20031;-82
2022/07/20 07:39:44;;;;;;;6.55;5.32;;;28.60;49.10;;;;;;4992862;28;20053;-81
2022/07/20 07:42:13;;;;;;;5.90;5.30;;;28.40;50.00;;;;;;4994130;28;20026;-80
2022/07/20 07:44:42;;;;;;;7.82;5.50;;;28.30;50.30;;;;;;4992450;28;20026;-81
2022/07/20 07:47:09;;;;;;;5.30;4.80;;;28.20;50.40;;;;;;4991987;28;20027;-84
2022/07/20 07:49:38;;;;;;;9.57;5.65;;;28.20;50.30;;;;;;4996961;28;20027;-83
2022/07/20 07:52:06;;;;;;;9.18;5.35;;;28.20;50.30;;;;;;4982453;28;20021;-82
2022/07/20 07:54:41;;;;;;;7.05;5.05;;;28.20;50.20;;;;;;4982552;28;20022;-82
2022/07/20 07:57:19;;;;;;;9.20;5.35;;;28.30;50.40;;;;;;4997223;28;20038;-81
2022/07/20 07:59:45;;;;;;;6.85;5.10;;;28.40;50.30;;;;;;4991647;28;20077;-80
2022/07/20 08:02:11;;;;;;;9.07;5.32;;;28.50;50.10;;;;;;4975323;28;20026;-82
2022/07/20 08:04:44;;;;;;;7.15;5.20;;;28.60;50.40;;;;;;4993738;28;20029;-82
2022/07/20 08:07:09;;;;;;;7.82;5.78;;;28.70;50.20;;;;;;4979264;28;20019;-83
2022/07/20 08:09:35;;;;;;;9.13;5.65;;;28.70;49.80;;;;;;4998603;28;20029;-82
2022/07/20 08:12:01;;;;;;;6.93;5.32;;;28.90;49.50;;;;;;4996854;28;20031;-82
2022/07/20 08:14:26;;;;;;;9.48;5.70;;;28.90;49.50;;;;;;4979403;28;20023;-83
2022/07/20 08:16:52;;;;;;;7.10;5.15;;;29.00;49.40;;;;;;4986139;28;20026;-82
2022/07/20 08:19:18;;;;;;;11.07;5.57;;;29.10;48.60;;;;;;4989035;28;20046;-83
2022/07/20 08:21:43;;;;;;;5.40;4.90;;;29.20;49.00;;;;;;4989979;28;20078;-82
2022/07/20 08:24:09;;;;;;;5.85;5.25;;;29.40;48.90;;;;;;4989629;28;20026;-80
2022/07/20 08:26:35;;;;;;;5.82;5.25;;;29.40;48.20;;;;;;4988006;28;20126;-81
2022/07/20 08:29:01;;;;;;;8.70;5.90;;;29.50;48.10;;;;;;4987321;28;20089;-82
2022/07/20 08:31:27;;;;;;;6.82;5.88;;;29.60;48.00;;;;;;4986879;28;20043;-82
2022/07/20 08:33:53;;;;;;;7.40;5.57;;;29.70;48.40;;;;;;4967979;28;20049;-81
2022/07/20 08:36:47;;;;;;;11.77;5.82;;;29.80;48.60;;;;;;4987986;28;20019;-81
2022/07/20 08:39:12;;;;;;;8.02;5.47;;;29.90;48.40;;;;;;4914994;29;20056;-81
2022/07/20 08:41:40;;;;;;;8.95;6.00;;;30.00;47.80;;;;;;4984110;28;20046;-84
2022/07/20 08:44:07;;;;;;;9.43;5.63;;;30.10;47.60;;;;;;4996730;28;20026;-84
2022/07/20 08:46:34;;;;;;;11.48;6.32;;;30.20;47.40;;;;;;4987460;28;20038;-83
2022/07/20 08:49:01;;;;;;;6.30;5.22;;;30.20;46.80;;;;;;4996448;28;20034;-83
2022/07/20 08:51:27;;;;;;;6.10;5.50;;;30.20;47.10;;;;;;4994278;28;20075;-84
2022/07/20 08:53:54;;;;;;;6.15;5.57;;;30.30;47.00;;;;;;4994992;28;20046;-82
2022/07/20 08:56:20;;;;;;;9.73;6.07;;;30.50;46.80;;;;;;4976812;28;20031;-82
2022/07/20 08:58:46;;;;;;;6.90;5.88;;;30.70;46.50;;;;;;4993559;28;20034;-82
2022/07/20 09:01:16;;;;;;;8.82;5.70;;;30.80;46.00;;;;;;4988195;28;20088;-83
2022/07/20 09:03:44;;;;;;;7.85;5.90;;;30.80;45.60;;;;;;4969972;28;20035;-83
2022/07/20 09:06:11;;;;;;;8.77;5.43;;;30.90;45.70;;;;;;4970710;28;20066;-82
2022/07/20 09:09:00;;;;;;;6.20;5.55;;;31.10;45.50;;;;;;4986909;28;20007;-82
2022/07/20 09:11:26;;;;;;;6.50;5.15;;;31.20;45.20;;;;;;4986964;28;20031;-82
2022/07/20 09:13:52;;;;;;;9.88;5.95;;;31.30;45.20;;;;;;4988421;28;20033;-82
2022/07/20 09:16:46;;;;;;;9.40;6.55;;;31.50;45.00;;;;;;4988438;28;20035;-83
2022/07/20 09:19:16;;;;;;;7.63;4.93;;;31.70;44.10;;;;;;4954049;28;20026;-82
2022/07/20 09:21:42;;;;;;;9.02;5.70;;;31.80;44.00;;;;;;4988860;28;20027;-82
2022/07/20 09:24:10;;;;;;;11.75;6.22;;;31.90;43.20;;;;;;4992638;28;20031;-81
2022/07/20 09:26:37;;;;;;;9.23;5.63;;;31.90;42.80;;;;;;4977104;28;20034;-83
2022/07/20 09:29:05;;;;;;;6.82;6.13;;;32.00;42.90;;;;;;4976602;28;20019;-81
2022/07/20 09:31:34;;;;;;;7.10;5.40;;;32.20;42.20;;;;;;4993874;28;20046;-81
2022/07/20 09:34:13;;;;;;;7.35;5.30;;;32.20;42.30;;;;;;4986774;28;20027;-82
2022/07/20 09:36:44;;;;;;;6.55;5.75;;;32.40;42.10;;;;;;4969874;28;20126;-82
2022/07/20 09:39:14;;;;;;;7.20;5.50;;;32.60;41.60;;;;;;4968881;28;20494;-83
2022/07/20 09:41:42;;;;;;;6.57;5.07;;;32.80;41.40;;;;;;4987686;28;20129;-81
2022/07/20 09:44:19;;;;;;;11.32;6.43;;;32.90;41.30;;;;;;4968230;28;20034;-82
2022/07/20 09:46:44;;;;;;;11.20;6.10;;;32.80;41.00;;;;;;4984720;28;20038;-82
2022/07/20 09:49:11;;;;;;;6.75;4.97;;;32.90;41.30;;;;;;4988445;28;20035;-83
2022/07/20 09:51:42;;;;;;;5.93;5.32;;;33.00;40.70;;;;;;4971551;28;20038;-82
2022/07/20 09:54:17;;;;;;;9.93;5.00;;;33.00;40.60;;;;;;4966586;28;20030;-82
2022/07/20 09:56:47;;;;;;;7.22;5.10;;;33.10;40.40;;;;;;4969239;28;20054;-82
2022/07/20 09:59:15;;;;;;;6.15;5.05;;;33.20;39.60;;;;;;4970563;28;20130;-83
2022/07/20 10:01:46;;;;;;;7.95;5.25;;;33.20;39.80;;;;;;4975079;28;20053;-80
2022/07/20 10:04:13;;;;;;;6.22;4.97;;;33.40;39.60;;;;;;4996320;28;20027;-81
2022/07/20 10:07:10;;;;;;;9.75;4.75;;;33.40;39.00;;;;;;4973455;28;20053;-82
2022/07/20 10:09:36;;;;;;;5.10;4.63;;;33.30;39.30;;;;;;4991049;28;20026;-82
2022/07/20 10:12:02;;;;;;;9.13;5.13;;;33.40;39.30;;;;;;4971639;28;20026;-82
2022/07/20 10:14:28;;;;;;;8.00;4.80;;;33.60;38.90;;;;;;4987736;28;20019;-82
2022/07/20 10:16:55;;;;;;;6.53;4.85;;;33.80;37.80;;;;;;4988052;28;20027;-82
2022/07/20 10:19:46;;;;;;;7.00;4.57;;;33.80;38.00;;;;;;4976199;28;20027;-82
2022/07/20 10:22:12;;;;;;;8.85;5.80;;;33.90;38.30;;;;;;4968525;29;20028;-83
2022/07/20 10:24:39;;;;;;;5.22;4.72;;;34.00;38.10;;;;;;4970663;29;20035;-82
2022/07/20 10:27:15;;;;;;;6.75;4.38;;;34.10;37.70;;;;;;4969363;29;20094;-82
2022/07/20 10:29:46;;;;;;;10.98;4.53;;;34.20;36.90;;;;;;4953065;29;20035;-83
2022/07/20 10:32:17;;;;;;;7.55;4.68;;;34.30;35.20;;;;;;4973886;28;20058;-83
2022/07/20 10:34:46;;;;;;;6.53;4.68;;;34.30;35.30;;;;;;4973473;29;20031;-83
2022/07/20 10:37:23;;;;;;;8.05;5.03;;;34.40;36.20;;;;;;4972906;28;20034;-83
2022/07/20 10:40:05;;;;;;;4.93;4.38;;;34.60;35.90;;;;;;4952183;29;20027;-84
2022/07/20 10:42:33;;;;;;;7.07;4.43;;;34.50;36.20;;;;;;4969634;28;20035;-85
2022/07/20 10:45:20;;;;;;;4.10;3.70;;;34.50;36.70;;;;;;4978655;28;20019;-84
2022/07/20 10:48:11;;;;;;;10.30;4.68;;;34.60;37.00;;;;;;4983463;28;20034;-84
2022/07/20 10:50:42;;;;;;;7.38;4.78;;;34.70;36.60;;;;;;4989639;28;20066;-85
2022/07/20 10:53:11;;;;;;;4.45;4.00;;;34.90;36.00;;;;;;4990293;28;20062;-84
2022/07/20 10:55:46;;;;;;;10.07;4.88;;;34.90;36.30;;;;;;4972475;28;20030;-84
2022/07/20 10:58:41;;;;;;;5.97;4.53;;;35.00;35.10;;;;;;4975018;28;20027;-85
2022/07/20 11:01:10;;;;;;;5.15;4.28;;;35.10;35.60;;;;;;4950493;28;20106;-86
2022/07/20 11:03:36;;;;;;;12.20;4.80;;;35.30;35.70;;;;;;4980824;28;20023;-83
2022/07/20 11:06:24;;;;;;;8.82;5.00;;;35.40;35.20;;;;;;4989640;28;20542;-86
2022/07/20 11:09:17;;;;;;;9.02;4.22;;;35.40;35.10;;;;;;4967164;28;20037;-83
2022/07/20 11:12:28;;;;;;;7.85;4.25;;;35.40;34.70;;;;;;4980677;28;20045;-83
2022/07/20 11:14:57;;;;;;;5.82;4.35;;;35.30;34.80;;;;;;4980637;28;20487;-85
2022/07/20 11:17:23;;;;;;;9.05;5.00;;;35.50;34.90;;;;;;4980170;28;20387;-85
2022/07/20 11:19:49;;;;;;;5.00;3.35;;;35.70;34.40;;;;;;4988060;28;20035;-81
2022/07/20 11:22:15;;;;;;;5.75;4.07;;;35.90;34.10;;;;;;4981820;28;20062;-83
2022/07/20 11:24:41;;;;;;;4.70;4.07;;;35.90;34.10;;;;;;4987701;28;20027;-83
2022/07/20 11:27:17;;;;;;;6.75;4.35;;;36.10;34.20;;;;;;4989275;28;20403;-84
2022/07/20 11:29:48;;;;;;;12.07;4.40;;;36.10;34.50;;;;;;4990203;28;20078;-81
2022/07/20 11:32:21;;;;;;;7.05;4.53;;;36.30;34.30;;;;;;4990560;28;20043;-84
2022/07/20 11:34:52;;;;;;;8.07;5.35;;;36.40;35.00;;;;;;4982224;28;20016;-82
2022/07/20 11:37:20;;;;;;;6.55;4.68;;;36.40;34.30;;;;;;4972354;28;20026;-83
2022/07/20 11:39:47;;;;;;;5.68;4.55;;;36.30;34.60;;;;;;4989875;28;20034;-84
2022/07/20 11:42:15;;;;;;;9.90;4.20;;;36.30;33.90;;;;;;4987905;28;20031;-82
2022/07/20 11:44:42;;;;;;;5.05;4.03;;;36.30;32.30;;;;;;4990140;28;20027;-82
2022/07/20 11:47:09;;;;;;;4.68;3.92;;;36.10;32.50;;;;;;4989784;28;20053;-84
2022/07/20 11:49:34;;;;;;;4.03;3.72;;;36.10;32.80;;;;;;4989337;28;20101;-84
2022/07/20 11:52:05;;;;;;;4.72;4.22;;;36.10;33.00;;;;;;4988600;28;20046;-83
2022/07/20 11:54:37;;;;;;;4.68;4.00;;;36.30;32.60;;;;;;4990081;28;20161;-82
2022/07/20 11:57:06;;;;;;;5.03;4.05;;;36.40;32.10;;;;;;4967929;28;20130;-83
2022/07/20 11:59:32;;;;;;;7.95;5.15;;;36.40;31.90;;;;;;4985939;28;20110;-83
2022/07/20 12:02:00;;;;;;;8.82;4.47;;;36.40;32.70;;;;;;4967803;28;20158;-84
2022/07/20 12:04:27;;;;;;;8.93;4.80;;;36.30;33.20;;;;;;4970920;28;20041;-82
2022/07/20 12:06:55;;;;;;;5.47;3.95;;;36.30;32.80;;;;;;4987085;28;20023;-84
2022/07/20 12:09:42;;;;;;;5.32;3.60;;;36.10;32.50;;;;;;4968997;28;20029;-85
2022/07/20 12:12:44;;;;;;;9.00;4.18;;;36.10;33.00;;;;;;4969439;28;20023;-84
2022/07/20 12:14:56;;;;;;;8.30;3.92;;;36.20;32.90;;;;;;4987506;28;20014;-84
2022/07/20 12:17:24;;;;;;;5.05;3.50;;;36.30;31.90;;;;;;4985859;28;20023;-81
2022/07/20 12:19:52;;;;;;;6.05;3.72;;;36.50;31.90;;;;;;4985297;28;20484;-80
2022/07/20 12:22:27;;;;;;;5.10;2.90;;;36.60;30.70;;;;;;4967334;28;20047;-82
2022/07/20 12:25:00;;;;;;;4.97;3.38;;;36.70;30.20;;;;;;4984756;28;20429;-81
2022/07/20 12:27:31;;;;;;;8.90;4.18;;;36.80;30.20;;;;;;4985557;28;20041;-81
2022/07/20 12:29:57;;;;;;;3.83;3.45;;;37.00;30.20;;;;;;4988702;28;20019;-83
2022/07/20 12:32:34;;;;;;;3.85;3.55;;;37.10;31.10;;;;;;4971153;28;20035;-82
2022/07/20 12:35:03;;;;;;;6.57;3.97;;;37.30;30.60;;;;;;4986836;28;20023;-82
2022/07/20 12:37:49;;;;;;;8.90;4.05;;;37.40;30.40;;;;;;4984988;28;20041;-82
2022/07/20 12:40:34;;;;;;;8.75;4.78;;;37.30;30.70;;;;;;4984669;28;20029;-83
2022/07/20 12:43:00;;;;;;;6.43;4.15;;;37.20;30.90;;;;;;4983858;28;20019;-83
2022/07/20 12:45:26;;;;;;;7.88;4.18;;;37.00;31.00;;;;;;4983735;28;20101;-84
2022/07/20 12:47:52;;;;;;;6.25;4.28;;;36.90;31.20;;;;;;4984566;28;20031;-82
2022/07/20 12:50:17;;;;;;;8.65;4.63;;;36.80;31.30;;;;;;4982749;28;20027;-83
2022/07/20 12:52:43;;;;;;;10.13;4.45;;;36.70;30.90;;;;;;4992373;28;20034;-83
2022/07/20 12:55:09;;;;;;;6.25;4.43;;;36.70;31.40;;;;;;4996628;28;20023;-83
2022/07/20 12:57:34;;;;;;;5.20;4.05;;;36.80;30.80;;;;;;4986288;28;20044;-83
2022/07/20 13:00:01;;;;;;;5.85;3.55;;;36.80;30.90;;;;;;4974678;28;20037;-83
2022/07/20 13:02:26;;;;;;;4.20;3.90;;;36.70;30.60;;;;;;4985209;28;20019;-83
2022/07/20 13:04:52;;;;;;;10.82;3.90;;;36.70;30.60;;;;;;4972451;28;20567;-82
2022/07/20 13:07:18;;;;;;;4.07;3.67;;;36.90;30.60;;;;;;4991508;28;20098;-82
2022/07/20 13:09:43;;;;;;;4.93;3.30;;;37.00;30.40;;;;;;4990350;28;20026;-84
2022/07/20 13:12:12;;;;;;;8.70;4.40;;;37.20;30.10;;;;;;4984045;28;20027;-83
2022/07/20 13:14:38;;;;;;;6.97;4.03;;;37.40;30.00;;;;;;4984597;28;20027;-84
2022/07/20 13:17:05;;;;;;;5.63;3.60;;;37.50;30.00;;;;;;4985670;28;20471;-83
2022/07/20 13:19:31;;;;;;;6.32;3.22;;;37.70;30.00;;;;;;4967897;28;20031;-83
2022/07/20 13:21:56;;;;;;;7.57;4.45;;;37.80;29.30;;;;;;4967433;28;20089;-83
2022/07/20 13:24:22;;;;;;;8.45;4.72;;;37.80;29.40;;;;;;4984512;28;20085;-84
2022/07/20 13:26:48;;;;;;;7.20;4.10;;;37.80;29.80;;;;;;4968407;28;20034;-83
2022/07/20 13:29:16;;;;;;;7.68;4.53;;;37.60;29.80;;;;;;4994871;28;20099;-82
2022/07/20 13:31:44;;;;;;;4.85;4.43;;;37.60;29.80;;;;;;5038730;22;20065;-86
2022/07/20 13:34:10;;;;;;;4.63;4.10;;;37.70;29.80;;;;;;5019826;28;20021;-88
2022/07/20 13:36:39;;;;;;;6.45;4.43;;;37.70;29.70;;;;;;5031012;28;20026;-85
2022/07/20 13:39:05;;;;;;;9.73;4.50;;;37.70;29.80;;;;;;5036896;28;20057;-86
2022/07/20 13:41:31;;;;;;;7.65;4.20;;;37.50;29.90;;;;;;5031173;28;20045;-85
2022/07/20 13:44:00;;;;;;;5.70;3.60;;;37.30;30.00;;;;;;5035075;28;20026;-86
2022/07/20 13:46:29;;;;;;;7.10;3.90;;;37.40;29.70;;;;;;5018294;28;20021;-85
2022/07/20 13:48:56;;;;;;;6.55;3.50;;;37.50;29.20;;;;;;5033913;28;20014;-84
2022/07/20 13:51:22;;;;;;;3.97;3.63;;;37.50;29.30;;;;;;5012812;28;20018;-85
2022/07/20 13:53:48;;;;;;;4.22;3.55;;;37.50;29.10;;;;;;5028576;28;20542;-82
2022/07/20 13:56:13;;;;;;;4.20;3.80;;;37.50;29.20;;;;;;5003913;28;20025;-82
2022/07/20 13:58:40;;;;;;;6.10;4.07;;;37.60;28.80;;;;;;5020974;28;20026;-84
2022/07/20 14:01:07;;;;;;;4.13;3.20;;;37.60;28.70;;;;;;5020791;28;20026;-84